createdAt,value
2023-03-08T00:02:01.810Z,1.18
2023-03-08T00:08:15.826Z,1.23
2023-03-08T00:10:44.358Z,1.21
2023-03-08T00:13:16.237Z,1.22
2023-03-08T00:15:44.765Z,1.22
2023-03-08T00:18:14.277Z,1.22
2023-03-08T00:20:43.131Z,1.23
2023-03-08T00:23:11.359Z,1.24
2023-03-08T00:25:39.739Z,1.25
2023-03-08T00:28:08.283Z,1.26
2023-03-08T00:30:37.120Z,1.26
2023-03-08T00:33:05.647Z,1.27
2023-03-08T00:35:33.818Z,1.28
2023-03-08T00:38:03.132Z,1.29
2023-03-08T00:40:31.566Z,1.29
2023-03-08T00:43:01.513Z,1.29
2023-03-08T00:45:29.965Z,1.29
2023-03-08T00:47:58.276Z,1.31
2023-03-08T00:50:26.599Z,1.32
2023-03-08T00:52:54.688Z,1.34
2023-03-08T00:55:22.934Z,1.36
2023-03-08T00:57:51.499Z,1.38
2023-03-08T01:00:26.770Z,1.40
2023-03-08T01:02:55.803Z,1.42
2023-03-08T01:05:24.694Z,1.45
2023-03-08T01:07:52.911Z,1.47
2023-03-08T01:10:21.254Z,1.49
2023-03-08T01:12:51.314Z,1.52
2023-03-08T01:15:19.499Z,1.54
2023-03-08T01:17:47.809Z,1.55
2023-03-08T01:20:16.064Z,1.55
2023-03-08T01:22:44.192Z,1.54
2023-03-08T01:25:12.470Z,1.54
2023-03-08T01:27:40.616Z,1.55
2023-03-08T01:30:09.596Z,1.56
2023-03-08T01:32:39.614Z,1.56
2023-03-08T01:35:08.273Z,1.57
2023-03-08T01:37:36.460Z,1.59
2023-03-08T01:40:05.894Z,1.60
2023-03-08T01:42:34.517Z,1.61
2023-03-08T01:45:04.641Z,1.63
2023-03-08T01:47:36.328Z,1.65
2023-03-08T01:50:18.601Z,1.66
2023-03-08T01:52:49.622Z,1.67
2023-03-08T01:55:18.462Z,1.69
2023-03-08T01:57:51.892Z,1.71
2023-03-08T02:00:23.125Z,1.73
2023-03-08T02:03:05.085Z,1.74
2023-03-08T02:05:33.348Z,1.76
2023-03-08T02:08:09.284Z,1.78
2023-03-08T02:10:38.600Z,1.80
2023-03-08T02:13:08.100Z,1.82
2023-03-08T02:15:39.010Z,1.85
2023-03-08T02:18:07.466Z,1.87
2023-03-08T02:20:40.653Z,1.90
2023-03-08T02:23:13.345Z,1.91
2023-03-08T02:25:50.235Z,1.93
2023-03-08T02:28:19.951Z,1.94
2023-03-08T02:30:48.208Z,1.95
2023-03-08T02:33:20.306Z,1.96
2023-03-08T02:35:48.604Z,1.97
2023-03-08T02:38:17.541Z,1.98
2023-03-08T02:40:46.239Z,1.98
2023-03-08T02:43:14.445Z,1.99
2023-03-08T02:45:42.575Z,1.99
2023-03-08T02:48:12.450Z,1.99
2023-03-08T02:50:42.249Z,1.99
2023-03-08T02:53:10.585Z,1.99
2023-03-08T02:55:40.010Z,1.98
2023-03-08T02:58:12.907Z,1.98
2023-03-08T03:00:41.291Z,1.96
2023-03-08T03:03:11.697Z,1.95
2023-03-08T03:05:43.804Z,1.95
2023-03-08T03:08:14.056Z,1.96
2023-03-08T03:10:42.995Z,1.97
2023-03-08T03:13:12.803Z,1.98
2023-03-08T03:15:41.155Z,2.00
2023-03-08T03:18:11.961Z,2.01
2023-03-08T03:20:40.136Z,2.02
2023-03-08T03:23:11.028Z,2.04
2023-03-08T03:25:44.541Z,2.06
2023-03-08T03:28:14.997Z,2.08
2023-03-08T03:30:45.008Z,2.10
2023-03-08T03:33:15.099Z,2.13
2023-03-08T03:35:44.159Z,2.14
2023-03-08T03:38:12.311Z,2.16
2023-03-08T03:40:46.501Z,2.16
2023-03-08T03:43:14.990Z,2.17
2023-03-08T03:45:43.273Z,2.17
2023-03-08T03:48:11.559Z,2.18
2023-03-08T03:50:39.805Z,2.18
2023-03-08T03:53:13.051Z,2.18
2023-03-08T03:55:41.543Z,2.18
2023-03-08T03:58:10.054Z,2.18
2023-03-08T04:00:58.648Z,2.18
2023-03-08T04:03:30.190Z,2.18
2023-03-08T04:06:16.799Z,2.17
2023-03-08T04:08:52.109Z,2.15
2023-03-08T04:11:22.109Z,2.14
2023-03-08T04:13:50.524Z,2.14
2023-03-08T04:16:22.657Z,2.14
2023-03-08T04:18:54.367Z,2.14
2023-03-08T04:21:22.836Z,2.15
2023-03-08T04:23:53.284Z,2.15
2023-03-08T04:26:22.280Z,2.15
2023-03-08T04:28:50.485Z,2.15
2023-03-08T04:31:20.360Z,2.16
2023-03-08T04:33:49.986Z,2.17
2023-03-08T04:36:18.327Z,2.18
2023-03-08T04:38:47.202Z,2.18
2023-03-08T04:41:18.168Z,2.19
2023-03-08T04:43:58.453Z,2.21
2023-03-08T04:46:36.933Z,2.23
2023-03-08T04:49:05.619Z,2.26
2023-03-08T04:51:38.563Z,2.27
2023-03-08T04:54:08.088Z,2.29
2023-03-08T04:56:39.491Z,2.30
2023-03-08T04:59:10.428Z,2.32
2023-03-08T05:01:38.852Z,2.35
2023-03-08T05:04:10.535Z,2.37
2023-03-08T05:06:39.880Z,2.40
2023-03-08T05:09:08.270Z,2.42
2023-03-08T05:11:37.388Z,2.44
2023-03-08T05:14:09.440Z,2.46
2023-03-08T05:16:37.883Z,2.48
2023-03-08T05:19:06.045Z,2.50
2023-03-08T05:21:38.190Z,2.51
2023-03-08T05:24:06.799Z,2.53
2023-03-08T05:26:37.246Z,2.55
2023-03-08T05:29:06.976Z,2.57
2023-03-08T05:31:37.983Z,2.59
2023-03-08T05:34:07.284Z,2.62
2023-03-08T05:36:38.079Z,2.64
2023-03-08T05:39:08.063Z,2.65
2023-03-08T05:41:42.053Z,2.67
2023-03-08T05:44:13.380Z,2.69
2023-03-08T05:46:42.475Z,2.73
2023-03-08T05:49:11.657Z,2.77
2023-03-08T05:51:40.299Z,2.80
2023-03-08T05:54:08.501Z,2.84
2023-03-08T05:56:38.965Z,2.85
2023-03-08T05:59:11.949Z,2.86
2023-03-08T06:01:41.342Z,2.84
2023-03-08T06:04:21.032Z,2.82
2023-03-08T06:06:54.409Z,2.83
2023-03-08T06:09:24.422Z,2.85
2023-03-08T06:11:53.577Z,2.87
2023-03-08T06:14:21.839Z,2.89
2023-03-08T06:16:50.279Z,2.93
2023-03-08T06:19:19.363Z,2.97
2023-03-08T06:21:48.117Z,2.99
2023-03-08T06:24:17.249Z,3.01
2023-03-08T06:26:46.520Z,3.04
2023-03-08T06:29:16.424Z,3.07
2023-03-08T06:31:45.020Z,3.09
2023-03-08T06:34:13.837Z,3.12
2023-03-08T06:36:48.465Z,3.13
2023-03-08T06:39:16.812Z,3.18
2023-03-08T06:41:45.192Z,3.23
2023-03-08T06:44:14.585Z,3.28
2023-03-08T06:46:42.971Z,3.31
2023-03-08T06:49:12.888Z,3.36
2023-03-08T06:51:41.368Z,3.42
2023-03-08T06:54:11.426Z,3.49
2023-03-08T06:56:42.702Z,3.56
2023-03-08T06:59:12.235Z,3.64
2023-03-08T07:01:41.008Z,3.73
2023-03-08T07:04:09.208Z,3.82
2023-03-08T07:06:37.532Z,3.91
2023-03-08T07:09:07.700Z,3.99
2023-03-08T07:11:36.009Z,4.06
2023-03-08T07:14:04.143Z,4.13
2023-03-08T07:16:32.324Z,4.20
2023-03-08T07:19:02.524Z,4.27
2023-03-08T07:21:34.296Z,4.35
2023-03-08T07:24:02.606Z,4.42
2023-03-08T07:26:31.108Z,4.51
2023-03-08T07:28:59.629Z,4.56
2023-03-08T07:31:29.160Z,4.60
2023-03-08T07:33:57.664Z,4.65
2023-03-08T07:36:26.655Z,4.67
2023-03-08T07:38:54.876Z,4.71
2023-03-08T07:41:23.103Z,4.77
2023-03-08T07:43:51.297Z,4.81
2023-03-08T07:46:24.501Z,4.85
2023-03-08T07:48:55.391Z,4.92
2023-03-08T07:51:24.304Z,4.99
2023-03-08T07:53:52.972Z,5.07
2023-03-08T07:56:21.444Z,5.15
2023-03-08T07:58:49.660Z,5.20
2023-03-08T08:01:18.476Z,5.24
2023-03-08T08:03:46.805Z,5.28
2023-03-08T08:06:16.399Z,5.33
2023-03-08T08:08:44.891Z,5.37
2023-03-08T08:11:17.170Z,5.41
2023-03-08T08:13:49.456Z,5.45
2023-03-08T08:16:18.338Z,5.49
2023-03-08T08:18:47.120Z,5.53
2023-03-08T08:21:16.065Z,5.57
2023-03-08T08:23:44.578Z,5.63
2023-03-08T08:26:17.838Z,5.69
2023-03-08T08:28:47.340Z,5.74
2023-03-08T08:31:22.596Z,5.82
2023-03-08T08:33:51.144Z,5.90
2023-03-08T08:36:20.188Z,5.99
2023-03-08T08:38:48.401Z,6.07
2023-03-08T08:41:18.236Z,6.14
2023-03-08T08:43:46.750Z,6.20
2023-03-08T08:46:15.984Z,6.27
2023-03-08T08:48:44.243Z,6.37
2023-03-08T08:51:13.469Z,6.44
2023-03-08T08:53:41.910Z,6.51
2023-03-08T08:56:31.798Z,6.59
2023-03-08T08:59:01.702Z,6.64
2023-03-08T09:01:32.958Z,6.67
2023-03-08T09:04:18.154Z,6.66
2023-03-08T09:06:47.517Z,6.65
2023-03-08T09:09:18.015Z,6.68
2023-03-08T09:11:55.213Z,6.73
2023-03-08T09:14:24.007Z,6.81
2023-03-08T09:16:53.261Z,6.88
2023-03-08T09:19:21.515Z,6.94
2023-03-08T09:21:50.128Z,7.00
2023-03-08T09:24:18.426Z,7.08
2023-03-08T09:26:49.291Z,7.17
2023-03-08T09:29:17.446Z,7.25
2023-03-08T09:31:45.833Z,7.34
2023-03-08T09:34:15.619Z,7.41
2023-03-08T09:36:44.173Z,7.46
2023-03-08T09:39:13.949Z,7.51
2023-03-08T09:41:49.565Z,7.55
2023-03-08T09:44:43.666Z,7.58
2023-03-08T09:47:57.100Z,7.59
2023-03-08T09:50:54.491Z,7.62
2023-03-08T09:53:33.837Z,7.63
2023-03-08T09:56:03.594Z,7.63
2023-03-08T09:58:35.878Z,7.63
2023-03-08T10:01:42.833Z,7.64
2023-03-08T10:04:29.839Z,7.69
2023-03-08T10:07:24.487Z,7.73
2023-03-08T10:10:11.593Z,7.76
2023-03-08T10:12:44.906Z,7.80
2023-03-08T10:15:17.856Z,7.83
2023-03-08T10:17:59.735Z,7.85
2023-03-08T10:20:30.224Z,7.87
2023-03-08T10:23:18.890Z,7.87
2023-03-08T10:25:47.786Z,7.83
2023-03-08T10:28:18.112Z,7.80
2023-03-08T10:30:52.406Z,7.81
2023-03-08T10:33:35.710Z,7.81
2023-03-08T10:36:06.576Z,7.83
2023-03-08T10:38:36.907Z,7.85
2023-03-08T10:41:16.548Z,7.87
2023-03-08T10:43:50.626Z,7.87
2023-03-08T10:46:20.437Z,7.83
2023-03-08T10:48:48.780Z,7.78
2023-03-08T10:51:25.172Z,7.71
2023-03-08T10:54:02.942Z,7.65
2023-03-08T10:56:44.871Z,7.60
2023-03-08T10:59:28.245Z,7.52
2023-03-08T11:01:59.407Z,7.45
2023-03-08T11:04:29.071Z,7.42
2023-03-08T11:07:12.861Z,7.38
2023-03-08T11:09:41.216Z,7.35
2023-03-08T11:12:11.661Z,7.31
2023-03-08T11:14:41.818Z,7.28
2023-03-08T11:17:18.963Z,7.25
2023-03-08T11:19:54.091Z,7.22
2023-03-08T11:22:32.109Z,7.18
2023-03-08T11:25:26.934Z,7.13
2023-03-08T11:28:32.664Z,7.05
2023-03-08T11:31:04.358Z,6.94
2023-03-08T11:33:44.839Z,6.85
2023-03-08T11:36:18.760Z,6.80
2023-03-08T11:39:10.117Z,6.78
2023-03-08T11:41:42.893Z,6.77
2023-03-08T11:44:22.438Z,6.74
2023-03-08T11:47:21.745Z,6.70
2023-03-08T11:50:06.183Z,6.69
2023-03-08T11:52:53.879Z,6.68
2023-03-08T11:55:58.808Z,6.68
2023-03-08T11:58:29.865Z,6.69
2023-03-08T12:01:02.592Z,6.72
2023-03-08T12:03:43.639Z,6.77
2023-03-08T12:06:28.219Z,6.82
2023-03-08T12:09:10.292Z,6.87
2023-03-08T12:11:42.113Z,6.92
2023-03-08T12:14:19.194Z,6.96
2023-03-08T12:17:02.636Z,7.05
2023-03-08T12:19:55.556Z,7.14
2023-03-08T12:22:23.564Z,7.26
2023-03-08T12:25:16.558Z,7.36
2023-03-08T12:27:50.276Z,7.46
2023-03-08T12:30:42.064Z,7.53
2023-03-08T12:33:13.434Z,7.62
2023-03-08T12:36:02.252Z,7.71
2023-03-08T12:38:36.490Z,7.80
2023-03-08T12:41:22.959Z,7.87
2023-03-08T12:44:03.780Z,7.94
2023-03-08T12:47:16.348Z,8.04
2023-03-08T12:49:46.679Z,8.16
2023-03-08T12:52:20.402Z,8.23
2023-03-08T12:55:01.990Z,8.29
2023-03-08T12:57:33.903Z,8.34
2023-03-08T13:00:06.772Z,8.41
2023-03-08T13:02:35.346Z,8.50
2023-03-08T13:05:19.439Z,8.61
2023-03-08T13:08:01.717Z,8.72
2023-03-08T13:10:38.030Z,8.77
2023-03-08T13:13:23.571Z,8.77
2023-03-08T13:16:07.031Z,8.79
2023-03-08T13:18:37.050Z,8.82
2023-03-08T13:21:20.366Z,8.85
2023-03-08T13:24:10.781Z,8.89
2023-03-08T13:26:51.479Z,8.91
2023-03-08T13:29:20.530Z,8.91
2023-03-08T13:31:49.020Z,8.90
2023-03-08T13:34:31.096Z,8.89
2023-03-08T13:37:00.244Z,8.87
2023-03-08T13:39:30.325Z,8.88
2023-03-08T13:42:09.333Z,8.86
2023-03-08T13:44:38.051Z,8.83
2023-03-08T13:47:18.983Z,8.82
2023-03-08T13:49:47.254Z,8.82
2023-03-08T13:52:18.449Z,8.82
2023-03-08T13:54:53.707Z,8.83
2023-03-08T13:57:24.008Z,8.84
2023-03-08T13:59:54.804Z,8.87
2023-03-08T14:02:25.620Z,8.89
2023-03-08T14:04:54.025Z,8.91
2023-03-08T14:07:32.254Z,8.92
2023-03-08T14:10:00.479Z,8.94
2023-03-08T14:12:31.537Z,8.95
2023-03-08T14:15:02.727Z,8.97
2023-03-08T14:17:32.634Z,8.97
2023-03-08T14:20:02.701Z,8.98
2023-03-08T14:22:39.547Z,8.98
2023-03-08T14:25:24.809Z,8.98
2023-03-08T14:27:55.839Z,8.96
2023-03-08T14:30:29.055Z,8.94
2023-03-08T14:33:14.245Z,8.89
2023-03-08T14:35:54.082Z,8.86
2023-03-08T14:38:31.147Z,8.83
2023-03-08T14:41:03.946Z,8.80
2023-03-08T14:43:32.405Z,8.78
2023-03-08T14:46:07.194Z,8.75
2023-03-08T14:48:36.579Z,8.71
2023-03-08T14:51:17.499Z,8.69
2023-03-08T14:54:03.096Z,8.65
2023-03-08T14:56:33.336Z,8.61
2023-03-08T14:59:02.454Z,8.57
2023-03-08T15:01:34.178Z,8.56
2023-03-08T15:04:02.844Z,8.53
2023-03-08T15:06:32.934Z,8.50
2023-03-08T15:09:01.709Z,8.47
2023-03-08T15:11:31.807Z,8.44
2023-03-08T15:14:00.416Z,8.39
2023-03-08T15:16:30.415Z,8.36
2023-03-08T15:18:59.179Z,8.34
2023-03-08T15:21:28.244Z,8.32
2023-03-08T15:24:01.038Z,8.28
2023-03-08T15:26:34.096Z,8.25
2023-03-08T15:29:04.946Z,8.22
2023-03-08T15:31:33.385Z,8.21
2023-03-08T15:34:01.780Z,8.20
2023-03-08T15:36:34.977Z,8.18
2023-03-08T15:39:04.751Z,8.15
2023-03-08T15:41:35.218Z,8.12
2023-03-08T15:44:03.753Z,8.09
2023-03-08T15:46:31.988Z,8.06
2023-03-08T15:49:01.669Z,8.03
2023-03-08T15:51:31.692Z,8.01
2023-03-08T15:54:00.711Z,7.99
2023-03-08T15:56:28.973Z,7.98
2023-03-08T15:58:59.713Z,7.96
2023-03-08T16:01:28.425Z,7.93
2023-03-08T16:03:56.685Z,7.90
2023-03-08T16:06:25.439Z,7.87
2023-03-08T16:08:54.044Z,7.85
2023-03-08T16:11:23.551Z,7.85
2023-03-08T16:13:52.539Z,7.84
2023-03-08T16:16:21.324Z,7.82
2023-03-08T16:18:54.231Z,7.80
2023-03-08T16:21:23.087Z,7.80
2023-03-08T16:23:51.240Z,7.80
2023-03-08T16:26:19.500Z,7.80
2023-03-08T16:28:47.879Z,7.79
2023-03-08T16:31:16.456Z,7.77
2023-03-08T16:33:45.242Z,7.74
2023-03-08T16:36:13.775Z,7.73
2023-03-08T16:38:43.694Z,7.70
2023-03-08T16:41:13.592Z,7.68
2023-03-08T16:43:48.789Z,7.66
2023-03-08T16:46:22.585Z,7.64
2023-03-08T16:48:54.567Z,7.62
2023-03-08T16:51:26.221Z,7.59
2023-03-08T16:53:54.719Z,7.57
2023-03-08T16:56:28.460Z,7.55
2023-03-08T16:58:59.445Z,7.52
2023-03-08T17:01:29.078Z,7.50
2023-03-08T17:03:58.117Z,7.46
2023-03-08T17:06:29.417Z,7.41
2023-03-08T17:08:59.203Z,7.37
2023-03-08T17:11:29.336Z,7.33
2023-03-08T17:14:06.456Z,7.27
2023-03-08T17:16:35.745Z,7.22
2023-03-08T17:19:05.852Z,7.18
2023-03-08T17:21:38.462Z,7.13
2023-03-08T17:24:13.108Z,7.06
2023-03-08T17:26:52.898Z,7.01
2023-03-08T17:29:21.813Z,6.95
2023-03-08T17:31:51.818Z,6.91
2023-03-08T17:34:23.474Z,6.86
2023-03-08T17:36:52.218Z,6.81
2023-03-08T17:39:21.160Z,6.78
2023-03-08T17:41:49.676Z,6.76
2023-03-08T17:44:18.176Z,6.73
2023-03-08T17:46:46.924Z,6.71
2023-03-08T17:49:23.291Z,6.67
2023-03-08T17:51:52.506Z,6.62
2023-03-08T17:54:20.888Z,6.58
2023-03-08T17:56:49.836Z,6.54
2023-03-08T17:59:23.760Z,6.51
2023-03-08T18:01:52.278Z,6.49
2023-03-08T18:04:22.227Z,6.47
2023-03-08T18:06:50.892Z,6.45
2023-03-08T18:09:19.606Z,6.43
2023-03-08T18:11:49.186Z,6.41
2023-03-08T18:14:17.453Z,6.41
2023-03-08T18:16:46.582Z,6.38
2023-03-08T18:19:15.979Z,6.34
2023-03-08T18:21:45.483Z,6.29
2023-03-08T18:24:13.760Z,6.27
2023-03-08T18:26:42.174Z,6.25
2023-03-08T18:29:12.574Z,6.24
2023-03-08T18:31:41.613Z,6.22
2023-03-08T18:34:10.779Z,6.20
2023-03-08T18:36:39.011Z,6.17
2023-03-08T18:39:08.859Z,6.14
2023-03-08T18:41:38.210Z,6.11
2023-03-08T18:44:07.869Z,6.07
2023-03-08T18:46:36.235Z,6.03
2023-03-08T18:49:07.176Z,6.00
2023-03-08T18:51:36.663Z,5.97
2023-03-08T18:54:05.277Z,5.95
2023-03-08T18:56:35.369Z,5.93
2023-03-08T18:59:05.498Z,5.90
2023-03-08T19:01:33.941Z,5.88
2023-03-08T19:04:07.955Z,5.84
2023-03-08T19:06:36.653Z,5.79
2023-03-08T19:09:12.010Z,5.75
2023-03-08T19:11:41.212Z,5.72
2023-03-08T19:14:11.445Z,5.69
2023-03-08T19:16:42.144Z,5.66
2023-03-08T19:19:15.135Z,5.64
2023-03-08T19:21:47.024Z,5.61
2023-03-08T19:24:16.841Z,5.59
2023-03-08T19:26:47.594Z,5.58
2023-03-08T19:29:20.286Z,5.57
2023-03-08T19:31:55.199Z,5.55
2023-03-08T19:34:36.847Z,5.53
2023-03-08T19:37:05.968Z,5.50
2023-03-08T19:39:36.768Z,5.49
2023-03-08T19:42:09.512Z,5.47
2023-03-08T19:44:38.307Z,5.44
2023-03-08T19:47:10.477Z,5.42
2023-03-08T19:49:40.194Z,5.40
2023-03-08T19:52:09.913Z,5.38
2023-03-08T19:54:39.402Z,5.35
2023-03-08T19:57:08.742Z,5.33
2023-03-08T19:59:38.846Z,5.30
2023-03-08T20:02:07.977Z,5.28
2023-03-08T20:04:37.605Z,5.26
2023-03-08T20:07:07.395Z,5.23
2023-03-08T20:09:36.203Z,5.18
2023-03-08T20:12:04.950Z,5.15
2023-03-08T20:14:35.002Z,5.10
2023-03-08T20:17:05.279Z,5.07
2023-03-08T20:19:36.795Z,5.03
2023-03-08T20:22:04.997Z,4.99
2023-03-08T20:24:35.542Z,4.96
2023-03-08T20:27:05.344Z,4.93
2023-03-08T20:29:34.563Z,4.89
2023-03-08T20:32:03.691Z,4.87
2023-03-08T20:34:32.814Z,4.87
2023-03-08T20:37:02.773Z,4.86
2023-03-08T20:39:30.995Z,4.85
2023-03-08T20:41:59.209Z,4.84
2023-03-08T20:44:27.486Z,4.83
2023-03-08T20:46:55.772Z,4.82
2023-03-08T20:49:26.486Z,4.81
2023-03-08T20:51:54.572Z,4.79
2023-03-08T20:54:23.355Z,4.78
2023-03-08T20:56:52.734Z,4.76
2023-03-08T20:59:24.230Z,4.74
2023-03-08T21:01:56.312Z,4.71
2023-03-08T21:04:24.765Z,4.68
2023-03-08T21:06:55.776Z,4.64
2023-03-08T21:09:24.632Z,4.59
2023-03-08T21:11:52.951Z,4.56
2023-03-08T21:14:24.032Z,4.51
2023-03-08T21:16:53.125Z,4.47
2023-03-08T21:19:22.213Z,4.43
2023-03-08T21:21:51.617Z,4.40
2023-03-08T21:24:21.295Z,4.35
2023-03-08T21:26:50.108Z,4.31
2023-03-08T21:29:20.023Z,4.26
2023-03-08T21:31:50.210Z,4.20
2023-03-08T21:34:19.914Z,4.10
2023-03-08T21:36:48.413Z,4.00
2023-03-08T21:39:18.522Z,3.93
2023-03-08T21:41:47.754Z,3.90
2023-03-08T21:44:18.027Z,3.85
2023-03-08T21:46:46.750Z,3.82
2023-03-08T21:49:17.885Z,3.78
2023-03-08T21:51:46.166Z,3.75
2023-03-08T21:54:15.754Z,3.70
2023-03-08T21:56:44.431Z,3.65
2023-03-08T21:59:13.130Z,3.58
2023-03-08T22:01:42.034Z,3.51
2023-03-08T22:04:10.586Z,3.45
2023-03-08T22:06:38.674Z,3.41
2023-03-08T22:09:10.229Z,3.37
2023-03-08T22:11:41.675Z,3.35
2023-03-08T22:14:10.663Z,3.33
2023-03-08T22:16:41.874Z,3.31
2023-03-08T22:19:10.494Z,3.29
2023-03-08T22:21:38.723Z,3.27
2023-03-08T22:24:10.339Z,3.28
2023-03-08T22:26:43.722Z,3.29
2023-03-08T22:29:11.936Z,3.29
2023-03-08T22:31:41.437Z,3.31
2023-03-08T22:34:10.887Z,3.32
2023-03-08T22:36:39.141Z,3.33
2023-03-08T22:39:08.042Z,3.33
2023-03-08T22:41:36.243Z,3.32
2023-03-08T22:44:04.789Z,3.32
2023-03-08T22:46:34.723Z,3.31
2023-03-08T22:49:05.233Z,3.32
2023-03-08T22:51:35.757Z,3.32
2023-03-08T22:54:08.115Z,3.32
2023-03-08T22:56:36.473Z,3.32
2023-03-08T22:59:06.850Z,3.33
2023-03-08T23:01:35.433Z,3.34
2023-03-08T23:04:04.679Z,3.36
2023-03-08T23:06:33.833Z,3.37
2023-03-08T23:09:06.385Z,3.38
2023-03-08T23:11:38.531Z,3.37
2023-03-08T23:14:08.586Z,3.36
2023-03-08T23:16:42.164Z,3.37
2023-03-08T23:19:15.889Z,3.37
2023-03-08T23:21:44.723Z,3.36
2023-03-08T23:24:15.108Z,3.37
2023-03-08T23:26:43.641Z,3.37
2023-03-08T23:29:12.580Z,3.37
2023-03-08T23:31:44.737Z,3.37
2023-03-08T23:34:13.460Z,3.37
2023-03-08T23:36:43.155Z,3.36
2023-03-08T23:39:11.509Z,3.36
2023-03-08T23:41:40.545Z,3.34
2023-03-08T23:44:10.241Z,3.35
2023-03-08T23:46:38.632Z,3.35
2023-03-08T23:49:07.354Z,3.36
2023-03-08T23:51:36.099Z,3.37
2023-03-08T23:54:05.405Z,3.38
2023-03-08T23:56:38.359Z,3.38
2023-03-08T23:59:18.150Z,3.39
